createdAt,value
2022-09-01T00:00:49.764Z,101901.75
2022-09-01T00:02:21.810Z,101900.06
2022-09-01T00:03:55.400Z,101902.75
2022-09-01T00:05:27.335Z,101901.88
2022-09-01T00:07:00.041Z,101901.91
2022-09-01T00:08:31.736Z,101888.66
2022-09-01T00:10:07.602Z,101894.97
2022-09-01T00:11:40.652Z,101895.09
2022-09-01T00:13:12.614Z,101898.69
2022-09-01T00:14:44.662Z,101892.63
2022-09-01T00:16:18.407Z,101897.94
2022-09-01T00:17:50.339Z,101906.81
2022-09-01T00:19:23.685Z,101896.28
2022-09-01T00:20:59.276Z,101901.69
2022-09-01T00:22:31.282Z,101898.19
2022-09-01T00:24:03.648Z,101899.16
2022-09-01T00:25:35.561Z,101900.06
2022-09-01T00:27:07.492Z,101901.03
2022-09-01T00:28:40.037Z,101897.47
2022-09-01T00:30:12.384Z,101899.19
2022-09-01T00:31:45.919Z,101897.53
2022-09-01T00:33:17.931Z,101898.50
2022-09-01T00:34:49.823Z,101902.06
2022-09-01T00:36:22.176Z,101895.91
2022-09-01T00:37:54.021Z,101893.34
2022-09-01T00:39:25.935Z,101894.25
2022-09-01T00:40:58.529Z,101896.91
2022-09-01T00:42:30.870Z,101893.41
2022-09-01T00:44:09.120Z,101894.34
2022-09-01T00:45:42.108Z,101901.41
2022-09-01T00:47:15.071Z,101889.94
2022-09-01T00:48:49.630Z,101893.53
2022-09-01T00:50:21.992Z,101902.41
2022-09-01T00:51:57.251Z,101894.50
2022-09-01T00:53:29.999Z,101890.94
2022-09-01T00:55:16.474Z,101892.75
2022-09-01T00:56:54.834Z,101888.41
2022-09-01T00:58:31.578Z,101891.09
2022-09-01T01:00:15.492Z,101892.03
2022-09-01T01:01:47.452Z,101894.78
2022-09-01T01:03:24.254Z,101888.63
2022-09-01T01:04:59.701Z,101890.44
2022-09-01T01:06:33.168Z,101888.72
2022-09-01T01:08:08.378Z,101886.97
2022-09-01T01:09:43.899Z,101891.44
2022-09-01T01:11:18.017Z,101890.59
2022-09-01T01:12:51.816Z,101894.16
2022-09-01T01:14:23.936Z,101892.38
2022-09-01T01:15:55.924Z,101888.94
2022-09-01T01:17:29.690Z,101888.06
2022-09-01T01:19:01.564Z,101892.50
2022-09-01T01:20:52.342Z,101891.66
2022-09-01T01:23:15.732Z,101894.34
2022-09-01T01:24:47.968Z,101890.88
2022-09-01T01:26:19.982Z,101892.72
2022-09-01T01:27:56.843Z,101890.94
2022-09-01T01:29:34.996Z,101895.41
2022-09-01T01:31:14.752Z,101888.34
2022-09-01T01:32:47.742Z,101885.72
2022-09-01T01:34:20.382Z,101894.56
2022-09-01T01:35:52.844Z,101889.28
2022-09-01T01:37:25.662Z,101892.88
2022-09-01T01:39:02.122Z,101891.16
2022-09-01T01:40:35.428Z,101892.16
2022-09-01T01:42:09.508Z,101890.44
2022-09-01T01:43:41.611Z,101892.25
2022-09-01T01:45:17.414Z,101894.94
2022-09-01T01:46:52.002Z,101896.75
2022-09-01T01:48:24.677Z,101893.28
2022-09-01T01:49:57.776Z,101895.06
2022-09-01T01:51:32.054Z,101892.44
2022-09-01T01:53:11.532Z,101896.91
2022-09-01T01:54:46.323Z,101889.88
2022-09-01T01:56:20.133Z,101894.25
2022-09-01T01:57:52.154Z,101892.56
2022-09-01T01:59:29.767Z,101894.34
2022-09-01T02:01:03.792Z,101896.16
2022-09-01T02:02:38.312Z,101901.50
2022-09-01T02:04:12.084Z,101901.50
2022-09-01T02:05:44.405Z,101896.19
2022-09-01T02:07:16.912Z,101890.00
2022-09-01T02:08:48.857Z,101894.34
2022-09-01T02:10:20.785Z,101896.09
2022-09-01T02:11:58.607Z,101896.13
2022-09-01T02:13:31.417Z,101892.63
2022-09-01T02:15:03.709Z,101893.47
2022-09-01T02:16:36.447Z,101893.56
2022-09-01T02:18:09.844Z,101893.56
2022-09-01T02:19:43.068Z,101894.53
2022-09-01T02:21:19.853Z,101887.47
2022-09-01T02:22:52.145Z,101895.44
2022-09-01T02:24:24.845Z,101888.44
2022-09-01T02:26:17.418Z,101891.97
2022-09-01T02:27:55.637Z,101894.59
2022-09-01T02:29:28.949Z,101897.22
2022-09-01T02:31:02.758Z,101891.97
2022-09-01T02:32:35.277Z,101898.16
2022-09-01T02:34:14.108Z,101895.53
2022-09-01T02:35:51.681Z,101900.00
2022-09-01T02:37:25.637Z,101892.16
2022-09-01T02:38:57.545Z,101898.31
2022-09-01T02:40:31.549Z,101900.13
2022-09-01T02:42:08.560Z,101901.88
2022-09-01T02:43:43.612Z,101896.59
2022-09-01T02:45:16.356Z,101894.00
2022-09-01T02:46:50.881Z,101899.38
2022-09-01T02:48:33.100Z,101897.63
2022-09-01T02:50:07.023Z,101892.41
2022-09-01T02:51:39.614Z,101896.88
2022-09-01T02:53:12.347Z,101895.16
2022-09-01T02:54:45.682Z,101898.69
2022-09-01T02:56:18.722Z,101893.50
2022-09-01T02:57:51.383Z,101884.69
2022-09-01T02:59:27.591Z,101894.50
2022-09-01T03:01:02.848Z,101891.94
2022-09-01T03:02:36.072Z,101891.09
2022-09-01T03:04:09.880Z,101893.75
2022-09-01T03:05:43.183Z,101890.31
2022-09-01T03:07:18.493Z,101892.94
2022-09-01T03:08:56.328Z,101891.25
2022-09-01T03:10:33.657Z,101887.72
2022-09-01T03:12:07.309Z,101888.63
2022-09-01T03:13:40.850Z,101891.31
2022-09-01T03:15:13.419Z,101890.47
2022-09-01T03:16:45.381Z,101893.06
2022-09-01T03:18:18.972Z,101893.13
2022-09-01T03:19:52.016Z,101892.28
2022-09-01T03:21:26.172Z,101895.00
2022-09-01T03:22:59.037Z,101898.53
2022-09-01T03:24:30.910Z,101892.38
2022-09-01T03:26:02.810Z,101895.03
2022-09-01T03:27:34.724Z,101895.03
2022-09-01T03:29:06.568Z,101902.09
2022-09-01T03:30:41.900Z,101895.06
2022-09-01T03:32:14.029Z,101895.16
2022-09-01T03:33:46.542Z,101896.06
2022-09-01T03:35:28.568Z,101892.59
2022-09-01T03:37:08.149Z,101900.53
2022-09-01T03:38:40.232Z,101897.16
2022-09-01T03:40:13.795Z,101890.97
2022-09-01T03:41:45.877Z,101898.03
2022-09-01T03:43:20.075Z,101890.13
2022-09-01T03:44:53.481Z,101891.88
2022-09-01T03:46:26.802Z,101895.44
2022-09-01T03:47:58.831Z,101897.22
2022-09-01T03:49:33.455Z,101898.09
2022-09-01T03:51:06.447Z,101888.47
2022-09-01T03:52:41.276Z,101890.22
2022-09-01T03:54:13.368Z,101891.16
2022-09-01T03:55:47.409Z,101890.28
2022-09-01T03:57:22.034Z,101886.81
2022-09-01T03:58:59.346Z,101880.63
2022-09-01T04:00:32.404Z,101884.22
2022-09-01T04:02:04.492Z,101890.41
2022-09-01T04:03:40.501Z,101885.09
2022-09-01T04:05:12.415Z,101881.59
2022-09-01T04:06:45.767Z,101893.06
2022-09-01T04:08:19.543Z,101883.38
2022-09-01T04:09:52.840Z,101881.66
2022-09-01T04:11:25.442Z,101877.31
2022-09-01T04:13:01.256Z,101884.41
2022-09-01T04:14:34.805Z,101882.66
2022-09-01T04:16:10.967Z,101883.53
2022-09-01T04:18:05.313Z,101881.78
2022-09-01T04:19:39.810Z,101871.19
2022-09-01T04:21:14.320Z,101880.94
2022-09-01T04:22:47.789Z,101884.50
2022-09-01T04:24:20.505Z,101882.78
2022-09-01T04:25:54.279Z,101888.91
2022-09-01T04:27:27.200Z,101885.44
2022-09-01T04:28:59.256Z,101883.72
2022-09-01T04:30:32.525Z,101886.44
2022-09-01T04:32:08.232Z,101883.84
2022-09-01T04:33:44.769Z,101885.59
2022-09-01T04:35:17.418Z,101884.75
2022-09-01T04:36:54.356Z,101887.38
2022-09-01T04:38:29.734Z,101883.00
2022-09-01T04:40:02.055Z,101880.41
2022-09-01T04:41:49.516Z,101882.16
2022-09-01T04:43:21.363Z,101884.72
2022-09-01T04:44:54.095Z,101882.09
2022-09-01T04:46:31.496Z,101889.19
2022-09-01T04:48:05.300Z,101895.41
2022-09-01T04:49:37.692Z,101888.38
2022-09-01T04:51:10.685Z,101886.66
2022-09-01T04:52:56.475Z,101891.06
2022-09-01T04:54:38.158Z,101892.88
2022-09-01T04:56:13.281Z,101886.69
2022-09-01T04:57:49.798Z,101893.75
2022-09-01T04:59:24.563Z,101891.06
2022-09-01T05:01:00.566Z,101898.16
2022-09-01T05:02:32.592Z,101898.16
2022-09-01T05:04:05.406Z,101898.16
2022-09-01T05:05:46.149Z,101900.75
2022-09-01T05:07:18.033Z,101897.25
2022-09-01T05:08:52.228Z,101897.25
2022-09-01T05:10:53.866Z,101900.78
2022-09-01T05:12:37.242Z,101897.31
2022-09-01T05:14:09.192Z,101897.34
2022-09-01T05:15:46.777Z,101900.88
2022-09-01T05:17:19.562Z,101896.44
2022-09-01T05:18:55.894Z,101900.84
2022-09-01T05:20:32.164Z,101892.03
2022-09-01T05:22:04.899Z,101903.44
2022-09-01T05:23:42.563Z,101899.06
2022-09-01T05:25:14.944Z,101904.28
2022-09-01T05:26:50.882Z,101906.06
2022-09-01T05:28:27.235Z,101911.28
2022-09-01T05:30:01.390Z,101898.09
2022-09-01T05:31:38.005Z,101909.53
2022-09-01T05:33:21.653Z,101906.81
2022-09-01T05:34:55.003Z,101897.06
2022-09-01T05:36:26.957Z,101904.94
2022-09-01T05:38:01.109Z,101900.53
2022-09-01T05:39:33.506Z,101906.66
2022-09-01T05:41:08.806Z,101907.53
2022-09-01T05:42:40.772Z,101906.63
2022-09-01T05:44:14.268Z,101910.97
2022-09-01T05:46:05.703Z,101909.16
2022-09-01T05:47:40.330Z,101906.53
2022-09-01T05:49:16.331Z,101912.75
2022-09-01T05:50:49.850Z,101914.47
2022-09-01T05:52:26.181Z,101917.03
2022-09-01T05:53:59.367Z,101912.63
2022-09-01T05:55:35.937Z,101917.00
2022-09-01T05:57:30.241Z,101923.13
2022-09-01T06:00:58.643Z,101917.75
2022-09-01T06:02:31.111Z,101911.56
2022-09-01T06:04:08.892Z,101922.16
2022-09-01T06:05:42.484Z,101924.78
2022-09-01T06:07:18.503Z,101918.59
2022-09-01T06:08:59.724Z,101927.44
2022-09-01T06:10:32.604Z,101929.19
2022-09-01T06:12:04.614Z,101921.25
2022-09-01T06:13:38.039Z,101929.19
2022-09-01T06:15:16.254Z,101926.53
2022-09-01T06:16:54.512Z,101931.84
2022-09-01T06:18:29.733Z,101936.25
2022-09-01T06:20:11.887Z,101934.50
2022-09-01T06:21:49.446Z,101935.38
2022-09-01T06:23:21.371Z,101937.09
2022-09-01T06:24:59.544Z,101933.56
2022-09-01T06:26:39.842Z,101930.91
2022-09-01T06:28:17.530Z,101934.41
2022-09-01T06:29:56.669Z,101928.16
2022-09-01T06:31:34.203Z,101930.81
2022-09-01T06:33:14.205Z,101929.91
2022-09-01T06:34:51.857Z,101925.47
2022-09-01T06:36:26.203Z,101933.41
2022-09-01T06:37:58.788Z,101927.19
2022-09-01T06:39:50.088Z,101936.00
2022-09-01T06:41:23.580Z,101940.38
2022-09-01T06:42:55.459Z,101933.25
2022-09-01T06:44:27.451Z,101933.16
2022-09-01T06:46:05.448Z,101941.88
2022-09-01T06:47:37.532Z,101940.06
2022-09-01T06:49:11.707Z,101937.31
2022-09-01T06:54:35.691Z,101935.28
2022-09-01T06:56:11.228Z,101941.44
2022-09-01T06:58:03.967Z,101936.94
2022-09-01T06:59:37.881Z,101934.16
2022-09-01T07:01:16.230Z,101933.16
2022-09-01T07:02:56.865Z,101937.44
2022-09-01T07:04:52.315Z,101941.69
2022-09-01T07:08:23.620Z,101939.66
2022-09-01T07:10:25.435Z,101932.44
2022-09-01T07:12:24.318Z,101936.69
2022-09-01T07:14:17.224Z,101935.66
2022-09-01T07:17:52.541Z,101942.28
2022-09-01T07:19:48.274Z,101940.41
2022-09-01T07:21:40.843Z,101941.88
2022-09-01T07:23:17.163Z,101934.28
2022-09-01T07:25:11.493Z,101937.44
2022-09-01T07:29:04.310Z,101924.47
2022-09-01T07:30:49.458Z,101927.72
2022-09-01T07:36:26.780Z,101936.09
2022-09-01T07:42:56.940Z,101921.41
2022-09-01T07:43:56.864Z,101928.00
2022-09-01T07:45:58.775Z,101924.06
2022-09-01T07:49:36.610Z,101925.97
2022-09-01T07:51:36.348Z,101931.75
2022-09-01T07:53:18.527Z,101927.16
2022-09-01T07:54:51.359Z,101931.31
2022-09-01T07:56:24.352Z,101931.25
2022-09-01T07:57:58.673Z,101925.75
2022-09-01T07:59:31.369Z,101936.06
2022-09-01T08:01:30.794Z,101931.19
2022-09-01T08:03:05.950Z,101930.72
2022-09-01T08:04:40.185Z,101928.34
2022-09-01T08:06:14.632Z,101931.44
2022-09-01T08:07:52.132Z,101929.22
2022-09-01T08:09:33.054Z,101929.81
2022-09-01T08:11:10.303Z,101931.44
2022-09-01T08:12:42.812Z,101939.38
2022-09-01T08:14:18.195Z,101937.53
2022-09-01T08:16:07.846Z,101941.88
2022-09-01T08:17:57.065Z,101933.66
2022-09-01T08:19:31.352Z,101934.81
2022-09-01T08:21:14.258Z,101931.50
2022-09-01T08:23:05.405Z,101932.69
2022-09-01T08:24:42.656Z,101938.38
2022-09-01T08:26:17.240Z,101931.72
2022-09-01T08:27:49.313Z,101935.81
2022-09-01T08:29:21.441Z,101928.44
2022-09-01T08:30:53.521Z,101929.81
2022-09-01T08:32:28.378Z,101931.66
2022-09-01T08:34:00.358Z,101936.72
2022-09-01T08:35:32.878Z,101934.28
2022-09-01T08:37:06.697Z,101925.28
2022-09-01T08:38:40.559Z,101927.66
2022-09-01T08:40:15.726Z,101927.41
2022-09-01T08:42:02.248Z,101925.03
2022-09-01T08:44:01.987Z,101921.66
2022-09-01T08:45:42.818Z,101928.81
2022-09-01T08:47:27.825Z,101918.53
2022-09-01T08:51:25.282Z,101924.16
2022-09-01T08:53:32.462Z,101919.31
2022-09-01T08:55:22.244Z,101924.06
2022-09-01T08:57:06.880Z,101916.19
2022-09-01T08:59:02.726Z,101922.78
2022-09-01T09:00:58.926Z,101924.06
2022-09-01T09:02:33.599Z,101925.50
2022-09-01T09:04:28.302Z,101914.81
2022-09-01T09:06:11.074Z,101908.78
2022-09-01T09:08:09.727Z,101926.44
2022-09-01T09:09:54.445Z,101918.25
2022-09-01T09:12:00.079Z,101916.53
2022-09-01T09:14:01.385Z,101918.72
2022-09-01T09:15:40.789Z,101920.34
2022-09-01T09:17:13.781Z,101911.22
2022-09-01T09:19:05.025Z,101911.22
2022-09-01T09:20:38.394Z,101907.56
2022-09-01T09:22:21.252Z,101913.50
2022-09-01T09:24:22.381Z,101909.06
2022-09-01T09:25:55.113Z,101909.03
2022-09-01T09:27:31.541Z,101901.63
2022-09-01T09:29:03.488Z,101896.63
2022-09-01T09:30:35.348Z,101894.56
2022-09-01T09:32:39.575Z,101892.56
2022-09-01T09:34:01.636Z,101889.22
2022-09-01T09:35:42.749Z,101894.16
2022-09-01T09:37:21.106Z,101883.25
2022-09-01T09:39:19.395Z,101883.06
2022-09-01T09:41:17.005Z,101873.06
2022-09-01T09:42:55.229Z,101876.41
2022-09-01T09:44:32.989Z,101872.56
2022-09-01T09:46:26.932Z,101876.84
2022-09-01T09:47:59.278Z,101864.06
2022-09-01T09:49:34.718Z,101869.25
2022-09-01T09:51:21.216Z,101863.84
2022-09-01T09:53:09.502Z,101860.28
2022-09-01T09:54:59.915Z,101864.88
2022-09-01T09:56:34.489Z,101869.81
2022-09-01T09:58:11.131Z,101875.97
2022-09-01T09:59:58.747Z,101866.16
2022-09-01T10:01:31.834Z,101868.69
2022-09-01T10:03:10.144Z,101872.19
2022-09-01T10:04:45.101Z,101852.59
2022-09-01T10:06:30.635Z,101855.50
2022-09-01T10:08:03.791Z,101855.50
2022-09-01T10:09:38.733Z,101856.28
2022-09-01T10:11:13.962Z,101858.88
2022-09-01T10:12:45.993Z,101853.69
2022-09-01T10:14:35.359Z,101846.28
2022-09-01T10:16:26.889Z,101847.81
2022-09-01T10:18:20.554Z,101851.25
2022-09-01T10:19:59.170Z,101841.94
2022-09-01T10:21:34.844Z,101846.50
2022-09-01T10:23:14.909Z,101838.44
2022-09-01T10:24:50.471Z,101840.38
2022-09-01T10:26:35.566Z,101849.75
2022-09-01T10:28:12.137Z,101827.91
2022-09-01T10:29:48.592Z,101842.22
2022-09-01T10:31:22.127Z,101844.47
2022-09-01T10:33:12.278Z,101846.13
2022-09-01T10:34:51.509Z,101843.84
2022-09-01T10:36:24.384Z,101836.66
2022-09-01T10:38:04.852Z,101835.16
2022-09-01T10:40:20.578Z,101831.06
2022-09-01T10:41:59.641Z,101830.84
2022-09-01T10:43:38.010Z,101828.41
2022-09-01T10:45:35.206Z,101819.31
2022-09-01T10:47:14.786Z,101826.31
2022-09-01T10:48:55.656Z,101823.38
2022-09-01T10:50:36.940Z,101817.84
2022-09-01T10:52:13.192Z,101823.34
2022-09-01T10:54:02.178Z,101818.75
2022-09-01T10:55:38.495Z,101826.78
2022-09-01T10:57:26.798Z,101819.34
2022-09-01T11:01:40.537Z,101824.00
2022-09-01T11:05:06.875Z,101817.41
2022-09-01T11:06:41.658Z,101815.69
2022-09-01T11:08:22.808Z,101809.81
2022-09-01T11:10:35.611Z,101814.31
2022-09-01T11:12:38.668Z,101814.50
2022-09-01T11:14:22.301Z,101814.00
2022-09-01T11:15:54.620Z,101808.63
2022-09-01T11:17:29.623Z,101818.84
2022-09-01T11:19:23.213Z,101811.72
2022-09-01T11:20:57.794Z,101804.19
2022-09-01T11:22:38.096Z,101804.94
2022-09-01T11:24:38.478Z,101810.63
2022-09-01T11:26:35.104Z,101812.81
2022-09-01T11:28:18.045Z,101804.16
2022-09-01T11:29:56.641Z,101802.91
2022-09-01T11:31:35.626Z,101803.94
2022-09-01T11:33:16.632Z,101799.97
2022-09-01T11:34:50.394Z,101793.97
2022-09-01T11:36:29.438Z,101792.06
2022-09-01T11:38:04.654Z,101785.25
2022-09-01T11:39:48.426Z,101783.56
2022-09-01T11:41:54.470Z,101785.06
2022-09-01T11:43:27.971Z,101783.75
2022-09-01T11:45:06.179Z,101777.00
2022-09-01T11:46:43.480Z,101773.44
2022-09-01T11:48:17.051Z,101786.16
2022-09-01T11:49:54.859Z,101780.31
2022-09-01T11:51:27.888Z,101776.31
2022-09-01T11:53:05.486Z,101773.84
2022-09-01T11:54:40.507Z,101777.50
2022-09-01T11:56:23.250Z,101781.16
2022-09-01T11:57:55.195Z,101775.16
2022-09-01T11:59:45.631Z,101777.84
2022-09-01T12:01:21.394Z,101771.69
2022-09-01T12:02:57.424Z,101769.00
2022-09-01T12:04:40.883Z,101764.78
2022-09-01T12:06:19.674Z,101766.84
2022-09-01T12:07:53.913Z,101765.00
2022-09-01T12:09:43.317Z,101760.91
2022-09-01T12:11:27.536Z,101769.09
2022-09-01T12:13:08.797Z,101760.69
2022-09-01T12:15:04.418Z,101756.56
2022-09-01T12:16:36.920Z,101758.50
2022-09-01T12:18:28.003Z,101747.44
2022-09-01T12:20:29.925Z,101748.47
2022-09-01T12:22:20.152Z,101746.34
2022-09-01T12:23:52.847Z,101745.25
2022-09-01T12:25:31.008Z,101747.09
2022-09-01T12:27:28.501Z,101741.69
2022-09-01T12:29:00.478Z,101753.16
2022-09-01T12:33:22.749Z,101755.25
2022-09-01T12:35:10.885Z,101750.00
2022-09-01T12:37:10.086Z,101738.03
2022-09-01T12:38:41.988Z,101723.50
2022-09-01T12:40:32.214Z,101730.53
2022-09-01T12:42:05.702Z,101728.78
2022-09-01T12:43:40.915Z,101736.63
2022-09-01T12:45:13.433Z,101729.75
2022-09-01T12:46:53.289Z,101739.53
2022-09-01T12:48:52.265Z,101728.44
2022-09-01T12:50:27.328Z,101734.38
2022-09-01T12:52:27.600Z,101716.47
2022-09-01T12:54:04.295Z,101721.34
2022-09-01T12:55:52.806Z,101732.66
2022-09-01T12:57:34.499Z,101729.88
2022-09-01T12:59:14.322Z,101723.94
2022-09-01T13:01:17.322Z,101720.81
2022-09-01T13:04:49.378Z,101717.09
2022-09-01T13:06:21.264Z,101719.66
2022-09-01T13:08:05.147Z,101723.34
2022-09-01T13:09:38.168Z,101704.78
2022-09-01T13:11:15.894Z,101713.56
2022-09-01T13:12:48.065Z,101703.19
2022-09-01T13:14:19.965Z,101711.84
2022-09-01T13:15:55.175Z,101708.97
2022-09-01T13:17:27.281Z,101706.47
2022-09-01T13:19:21.823Z,101692.28
2022-09-01T13:20:53.113Z,101695.31
2022-09-01T13:22:25.070Z,101688.56
2022-09-01T13:23:58.031Z,101698.19
2022-09-01T13:25:29.876Z,101685.59
2022-09-01T13:28:54.173Z,101675.72
2022-09-01T13:30:29.131Z,101681.56
2022-09-01T13:32:19.265Z,101685.00
2022-09-01T13:35:43.921Z,101680.75
2022-09-01T13:37:15.973Z,101670.47
2022-09-01T13:38:50.589Z,101665.13
2022-09-01T13:40:23.353Z,101674.09
2022-09-01T13:41:55.425Z,101673.16
2022-09-01T13:43:27.578Z,101672.69
2022-09-01T13:44:59.539Z,101670.97
2022-09-01T13:46:31.391Z,101670.06
2022-09-01T13:48:19.054Z,101668.91
2022-09-01T13:50:09.754Z,101676.44
2022-09-01T13:51:42.919Z,101669.88
2022-09-01T13:53:14.780Z,101668.84
2022-09-01T13:54:47.896Z,101676.31
2022-09-01T13:56:22.904Z,101668.56
2022-09-01T13:57:55.887Z,101666.28
2022-09-01T13:59:31.067Z,101662.28
2022-09-01T14:01:03.185Z,101658.13
2022-09-01T14:02:35.499Z,101658.00
2022-09-01T14:04:07.911Z,101655.66
2022-09-01T14:05:42.802Z,101667.41
2022-09-01T14:07:16.227Z,101660.06
2022-09-01T14:08:48.114Z,101659.06
2022-09-01T14:10:21.456Z,101658.72
2022-09-01T14:11:55.439Z,101647.50
2022-09-01T14:13:27.928Z,101656.63
2022-09-01T14:15:17.548Z,101655.53
2022-09-01T14:16:50.519Z,101659.06
2022-09-01T14:18:22.824Z,101648.41
2022-09-01T14:19:55.483Z,101651.91
2022-09-01T14:21:27.493Z,101641.78
2022-09-01T14:22:59.701Z,101643.13
2022-09-01T14:24:32.121Z,101637.22
2022-09-01T14:26:08.397Z,101635.94
2022-09-01T14:27:44.629Z,101633.44
2022-09-01T14:29:17.467Z,101631.13
2022-09-01T14:31:03.272Z,101629.19
2022-09-01T14:32:36.523Z,101618.31
2022-09-01T14:34:08.852Z,101626.53
2022-09-01T14:35:43.948Z,101624.63
2022-09-01T14:37:16.415Z,101630.31
2022-09-01T14:38:49.469Z,101626.19
2022-09-01T14:40:23.928Z,101616.63
2022-09-01T14:41:55.780Z,101614.13
2022-09-01T14:43:28.118Z,101622.53
2022-09-01T14:45:00.569Z,101622.41
2022-09-01T14:46:34.572Z,101625.25
2022-09-01T14:48:09.208Z,101618.38
2022-09-01T14:49:42.953Z,101617.13
2022-09-01T14:51:24.320Z,101617.06
2022-09-01T14:52:56.953Z,101618.78
2022-09-01T14:54:28.876Z,101607.53
2022-09-01T14:56:01.669Z,101616.88
2022-09-01T14:57:38.613Z,101611.50
2022-09-01T14:59:11.899Z,101610.66
2022-09-01T15:00:44.334Z,101617.16
2022-09-01T15:02:16.099Z,101618.75
2022-09-01T15:03:48.384Z,101613.81
2022-09-01T15:05:20.765Z,101606.78
2022-09-01T15:06:52.675Z,101611.91
2022-09-01T15:08:25.099Z,101612.66
2022-09-01T15:10:01.826Z,101609.41
2022-09-01T15:11:33.914Z,101607.47
2022-09-01T15:13:13.019Z,101610.84
2022-09-01T15:14:47.680Z,101604.41
2022-09-01T15:16:25.608Z,101607.97
2022-09-01T15:17:57.607Z,101601.84
2022-09-01T15:19:29.536Z,101597.59
2022-09-01T15:21:01.389Z,101596.44
2022-09-01T15:22:33.230Z,101595.53
2022-09-01T15:24:06.189Z,101597.31
2022-09-01T15:25:38.074Z,101586.72
2022-09-01T15:27:11.558Z,101587.41
2022-09-01T15:28:48.055Z,101582.59
2022-09-01T15:30:20.466Z,101584.22
2022-09-01T15:31:59.629Z,101583.41
2022-09-01T15:33:31.648Z,101574.63
2022-09-01T15:35:03.633Z,101580.75
2022-09-01T15:36:40.111Z,101578.53
2022-09-01T15:38:17.638Z,101573.47
2022-09-01T15:39:54.448Z,101577.97
2022-09-01T15:41:28.964Z,101575.03
2022-09-01T15:43:01.058Z,101572.84
2022-09-01T15:44:32.968Z,101576.50
2022-09-01T15:46:05.157Z,101576.34
2022-09-01T15:47:39.570Z,101571.22
2022-09-01T15:49:13.336Z,101576.63
2022-09-01T15:50:45.556Z,101576.41
2022-09-01T15:52:17.566Z,101577.84
2022-09-01T15:53:54.045Z,101576.41
2022-09-01T15:55:50.274Z,101571.34
2022-09-01T15:57:22.151Z,101584.81
2022-09-01T15:59:02.084Z,101569.47
2022-09-01T16:00:37.326Z,101576.47
2022-09-01T16:02:10.692Z,101574.63
2022-09-01T16:03:42.832Z,101573.03
2022-09-01T16:05:15.081Z,101572.91
2022-09-01T16:06:48.761Z,101567.94
2022-09-01T16:08:21.862Z,101571.22
2022-09-01T16:09:58.012Z,101569.78
2022-09-01T16:11:29.923Z,101570.13
2022-09-01T16:13:02.141Z,101569.84
2022-09-01T16:14:34.136Z,101557.47
2022-09-01T16:16:26.295Z,101565.88
2022-09-01T16:18:07.266Z,101560.53
2022-09-01T16:19:55.625Z,101560.94
2022-09-01T16:21:49.206Z,101560.84
2022-09-01T16:23:23.514Z,101568.91
2022-09-01T16:24:58.005Z,101555.34
2022-09-01T16:26:30.578Z,101554.38
2022-09-01T16:28:03.885Z,101556.22
2022-09-01T16:29:44.633Z,101547.59
2022-09-01T16:31:22.905Z,101555.53
2022-09-01T16:32:58.390Z,101559.44
2022-09-01T16:34:32.214Z,101554.91
2022-09-01T16:36:08.109Z,101544.13
2022-09-01T16:37:45.529Z,101556.50
2022-09-01T16:39:29.300Z,101554.25
2022-09-01T16:41:16.311Z,101555.13
2022-09-01T16:42:57.946Z,101554.72
2022-09-01T16:44:52.069Z,101555.75
2022-09-01T16:46:47.984Z,101559.63
2022-09-01T16:48:47.305Z,101552.09
2022-09-01T16:50:41.066Z,101546.03
2022-09-01T16:52:43.219Z,101549.03
2022-09-01T16:54:34.779Z,101549.38
2022-09-01T16:56:12.496Z,101557.41
2022-09-01T16:58:22.635Z,101561.69
2022-09-01T16:59:56.114Z,101547.41
2022-09-01T17:01:45.646Z,101555.22
2022-09-01T17:03:19.985Z,101553.56
2022-09-01T17:05:05.637Z,101558.69
2022-09-01T17:06:55.531Z,101554.69
2022-09-01T17:08:31.759Z,101555.16
2022-09-01T17:10:27.769Z,101554.56
2022-09-01T17:12:23.498Z,101555.72
2022-09-01T17:13:56.333Z,101548.06
2022-09-01T17:15:41.050Z,101549.97
2022-09-01T17:17:18.426Z,101556.09
2022-09-01T17:18:54.794Z,101544.50
2022-09-01T17:20:30.132Z,101549.97
2022-09-01T17:22:07.957Z,101547.09
2022-09-01T17:24:05.138Z,101547.66
2022-09-01T17:25:44.976Z,101543.91
2022-09-01T17:27:32.162Z,101555.50
2022-09-01T17:29:32.888Z,101544.41
2022-09-01T17:31:13.336Z,101542.75
2022-09-01T17:33:17.188Z,101539.19
2022-09-01T17:35:04.967Z,101548.91
2022-09-01T17:36:47.227Z,101546.22
2022-09-01T17:38:28.247Z,101547.19
2022-09-01T17:40:13.630Z,101539.59
2022-09-01T17:41:55.760Z,101548.25
2022-09-01T17:43:35.715Z,101541.56
2022-09-01T17:45:31.178Z,101546.16
2022-09-01T17:47:12.110Z,101541.38
2022-09-01T17:48:53.018Z,101543.50
2022-09-01T17:52:54.866Z,101538.22
2022-09-01T17:54:40.392Z,101543.66
2022-09-01T17:56:50.299Z,101536.69
2022-09-01T17:58:32.528Z,101534.16
2022-09-01T18:00:23.227Z,101538.19
2022-09-01T18:02:04.200Z,101539.53
2022-09-01T18:04:12.035Z,101541.91
2022-09-01T18:05:53.493Z,101539.50
2022-09-01T18:07:40.626Z,101537.13
2022-09-01T18:09:15.782Z,101550.19
2022-09-01T18:10:58.551Z,101552.00
2022-09-01T18:12:36.078Z,101551.34
2022-09-01T18:14:07.937Z,101549.50
2022-09-01T18:15:54.456Z,101554.28
2022-09-01T18:17:31.878Z,101550.66
2022-09-01T18:19:12.494Z,101546.63
2022-09-01T18:20:46.763Z,101555.09
2022-09-01T18:22:21.660Z,101556.50
2022-09-01T18:23:59.094Z,101554.97
2022-09-01T18:26:05.755Z,101555.13
2022-09-01T18:27:38.053Z,101554.63
2022-09-01T18:29:10.032Z,101562.75
2022-09-01T18:30:53.474Z,101559.41
2022-09-01T18:32:40.736Z,101561.22
2022-09-01T18:34:38.831Z,101561.28
2022-09-01T18:36:32.490Z,101563.09
2022-09-01T18:38:09.795Z,101568.72
2022-09-01T18:39:41.572Z,101571.56
2022-09-01T18:41:55.061Z,101570.88
2022-09-01T18:43:37.961Z,101571.94
2022-09-01T18:45:09.850Z,101575.81
2022-09-01T18:46:56.699Z,101576.00
2022-09-01T18:49:06.051Z,101585.06
2022-09-01T18:50:57.717Z,101581.78
2022-09-01T18:53:04.860Z,101579.28
2022-09-01T18:54:55.353Z,101578.75
2022-09-01T18:56:48.951Z,101579.84
2022-09-01T18:58:31.412Z,101580.97
2022-09-01T19:00:18.151Z,101582.06
2022-09-01T19:02:00.307Z,101579.72
2022-09-01T19:03:46.057Z,101585.09
2022-09-01T19:05:44.239Z,101591.47
2022-09-01T19:07:37.467Z,101590.78
2022-09-01T19:09:24.598Z,101588.44
2022-09-01T19:11:06.376Z,101589.91
2022-09-01T19:12:45.416Z,101592.81
2022-09-01T19:14:26.325Z,101583.22
2022-09-01T19:16:04.516Z,101593.22
2022-09-01T19:19:09.966Z,101590.72
2022-09-01T19:21:04.455Z,101586.47
2022-09-01T19:22:58.495Z,101591.16
2022-09-01T19:24:44.194Z,101582.59
2022-09-01T19:26:21.365Z,101589.22
2022-09-01T19:28:30.206Z,101590.56
2022-09-01T19:30:08.492Z,101593.63